Gretna, Florida
Current Conditions -  °F | °C
As of 8:35 PM on Thursday 27 Nov 2014 (Local Time) from K2J9 Reporting Station
Clear Clear  
Wind Chill: 42°   Ceiling: Unl
Heat Index: 45°   Visibility: 10mi
Dew Point: 34°   Wind: 5mph
Humidity: 66%   Direction: 340°NNW
Pressure: 30.38"   Gusts: NA
Location:  30.62°N, 84.66°W
Report Text: K2J9 280135Z AUTO 34004KT 10SM CLR 07/01 A3038 RMK AO1 P0292
Loading
Personal Weather Stations






























Interactive Weather Map New forecast layout! Learn more

10-Day Weather Forecast

Advertisements
Track Severe Weather on mobile